CYGH

Fort Good Hope Airport

Fort Good Hope, Northwest Territories, Canada
METAR CYGH 152300Z 05003KT 020V100 15SM BKN009 OVC058 00/M01 A3011 RMK SC7SC1 1.0/ -1.8/ 0.0/ SNW CVR/ TRACE LOOSE/ LAST STFD OBS/ NXT 161300Z SLP205
Observed Flight Rules
Oct-15 @ 23:00 UTC (7 hours ago) Instrument Flight Rules
Wind Visibility Clouds
50° at 3 knots 15 miles
  • Broken at 900' AGL
  • Overcast at 5,800' AGL
Temperatures Readings
Current 0°C / 32°F
Dewpoint -1°C / 30°F
Humidity 93%
Altimeter 30.11" Hg
Pressure 1020.5 hPa
Elevation 66
METAR CYGH 152300Z 05003KT 020V100 15SM BKN009 OVC058 00/M01 A3011 RMK SC7SC1 1.0/ -1.8/ 0.0/ SNW CVR/ TRACE LOOSE/ LAST STFD OBS/ NXT 161300Z SLP205
Observed Flight Rules
Oct-15 @ 23:00 UTC
(7 hours ago)
IFR
Wind Visibility
50° at 3 knots 15 miles
Clouds
  • Broken at 900' AGL
  • Overcast at 5,800' AGL
Temperature Dewpoint
0°C / 32°F -1°C / 30°F
Humidity Altimeter Pressure
93% 30.11" Hg 1020.5 hPa